createdAt,value
2017-09-09T10:54:47.354Z,60.00
2017-09-09T10:57:14.885Z,51.60
2017-09-09T10:59:42.442Z,52.80
2017-09-09T11:02:09.982Z,48.50
2017-09-09T11:04:37.515Z,46.50
2017-09-09T11:07:05.064Z,49.00
2017-09-09T11:09:32.569Z,52.20
2017-09-09T11:12:00.102Z,56.70
2017-09-09T11:14:27.610Z,56.10
2017-09-09T11:16:56.603Z,68.30
2017-09-09T11:19:24.170Z,68.30
2017-09-09T11:21:51.707Z,72.40
2017-09-09T11:24:19.234Z,76.40
2017-09-09T11:26:46.774Z,78.10
2017-09-09T11:29:14.298Z,82.50
2017-09-09T11:31:41.822Z,82.90
2017-09-09T11:34:09.384Z,85.20
2017-09-09T11:36:36.888Z,84.40
2017-09-09T11:39:04.426Z,88.30
2017-09-09T11:41:31.944Z,80.70
2017-09-09T11:43:59.517Z,80.10
2017-09-09T11:46:27.034Z,72.50
2017-09-09T11:48:54.600Z,67.90
2017-09-09T11:51:22.130Z,71.60
2017-09-09T11:53:50.493Z,72.70
2017-09-09T11:56:18.093Z,71.80
2017-09-09T12:01:19.419Z,77.90
2017-09-09T12:03:47.749Z,84.50
2017-09-09T12:06:15.251Z,84.50
2017-09-09T12:08:43.554Z,84.90
2017-09-09T12:11:11.180Z,84.80
2017-09-09T12:13:38.761Z,84.90
2017-09-09T12:16:07.075Z,72.50
2017-09-09T12:18:35.554Z,72.70
2017-09-09T12:21:03.086Z,68.30
2017-09-09T12:23:31.408Z,54.20
2017-09-09T12:25:58.957Z,54.10
2017-09-09T12:28:26.482Z,55.70
2017-09-09T12:30:54.761Z,47.60
2017-09-09T12:33:22.297Z,47.40
2017-09-09T12:35:50.052Z,50.50
2017-09-09T12:38:17.650Z,46.10
2017-09-09T12:40:45.957Z,43.80
2017-09-09T12:43:13.519Z,43.80
2017-09-09T12:45:41.046Z,41.30
2017-09-09T12:48:09.433Z,37.90
2017-09-09T12:50:37.769Z,37.20
2017-09-09T12:53:08.456Z,37.20
2017-09-09T12:55:35.985Z,36.90
2017-09-09T12:58:04.316Z,40.70
2017-09-09T13:00:31.840Z,40.70
2017-09-09T13:02:59.427Z,39.50
2017-09-09T13:05:26.944Z,39.10
2017-09-09T13:07:56.200Z,42.80
2017-09-09T13:10:23.745Z,42.80
2017-09-09T13:12:51.263Z,43.20
2017-09-09T13:15:18.799Z,41.60
2017-09-09T13:17:46.347Z,42.10
2017-09-09T13:20:13.851Z,39.70
2017-09-09T13:22:41.381Z,40.90
2017-09-09T13:25:08.925Z,40.90
2017-09-09T13:27:36.426Z,44.90
2017-09-09T13:30:03.962Z,46.20
2017-09-09T13:32:31.480Z,47.70
2017-09-09T13:34:59.076Z,47.20
2017-09-09T13:37:26.637Z,47.30
2017-09-09T13:39:54.192Z,49.80
2017-09-09T13:42:21.730Z,52.40
2017-09-09T13:44:49.257Z,55.30
2017-09-09T13:47:16.782Z,56.40
2017-09-09T13:49:44.341Z,57.60
2017-09-09T13:52:11.905Z,57.80
2017-09-09T13:54:40.186Z,56.60
2017-09-09T13:57:08.466Z,54.40
2017-09-09T13:59:36.022Z,54.40
2017-09-09T14:02:03.547Z,50.90
2017-09-09T14:04:31.080Z,49.90
2017-09-09T14:06:58.604Z,49.50
2017-09-09T14:09:26.141Z,48.50
2017-09-09T14:11:53.675Z,49.50
2017-09-09T14:14:21.261Z,47.90
2017-09-09T14:16:48.866Z,46.60
2017-09-09T14:19:16.434Z,49.00
2017-09-09T14:21:44.015Z,50.10
2017-09-09T14:24:11.571Z,51.00
2017-09-09T14:26:39.106Z,53.40
2017-09-09T14:29:07.445Z,61.40
2017-09-09T14:31:34.974Z,61.10
2017-09-09T14:34:02.507Z,77.50
2017-09-09T14:36:30.186Z,82.70
2017-09-09T14:38:57.755Z,86.90
2017-09-09T14:41:25.259Z,88.50
2017-09-09T14:43:52.778Z,88.50
2017-09-09T14:46:20.319Z,90.40
2017-09-09T14:48:47.891Z,90.40
2017-09-09T14:51:15.413Z,91.10
2017-09-09T14:53:43.834Z,88.20
2017-09-09T14:56:11.356Z,88.00
2017-09-09T14:58:39.687Z,90.80
2017-09-09T15:01:07.246Z,90.80
2017-09-09T15:03:34.758Z,90.60
2017-09-09T15:06:02.299Z,90.50
2017-09-09T15:08:30.622Z,92.00
2017-09-09T15:10:58.143Z,91.50
2017-09-09T15:13:26.540Z,90.10
2017-09-09T15:15:55.394Z,90.50
2017-09-09T15:18:22.946Z,90.40
2017-09-09T15:20:50.499Z,87.10
2017-09-09T15:23:17.999Z,88.70
2017-09-09T15:25:46.289Z,87.40
2017-09-09T15:28:13.802Z,87.40
2017-09-09T15:30:41.351Z,84.90
2017-09-09T15:33:08.874Z,84.00
2017-09-09T15:35:36.423Z,82.50
2017-09-09T15:38:04.716Z,74.10
2017-09-09T15:40:32.238Z,74.10
2017-09-09T15:43:00.537Z,76.70
2017-09-09T15:45:28.133Z,76.70
2017-09-09T15:47:56.321Z,76.90
2017-09-09T15:50:23.883Z,75.90
2017-09-09T15:52:51.407Z,77.10
2017-09-09T15:55:18.975Z,79.30
2017-09-09T15:57:46.495Z,80.90
2017-09-09T16:00:14.802Z,80.60
2017-09-09T16:02:42.369Z,80.60
2017-09-09T16:05:09.891Z,76.70
2017-09-09T16:07:38.215Z,75.40
2017-09-09T16:10:05.786Z,75.30
2017-09-09T16:12:34.106Z,81.40
2017-09-09T16:15:02.420Z,78.10
2017-09-09T16:17:29.943Z,78.00
2017-09-09T16:19:57.493Z,76.90
2017-09-09T16:22:25.022Z,80.60
2017-09-09T16:24:52.564Z,81.10
2017-09-09T16:27:20.069Z,75.90
2017-09-09T16:29:47.641Z,79.60
2017-09-09T16:32:15.261Z,79.80
2017-09-09T16:34:42.792Z,79.10
2017-09-09T16:37:10.324Z,82.50
2017-09-09T16:39:37.906Z,84.40
2017-09-09T16:42:05.438Z,83.40
2017-09-09T16:44:33.781Z,81.60
2017-09-09T16:47:01.319Z,81.40
2017-09-09T16:49:28.810Z,82.50
2017-09-09T16:51:57.255Z,85.30
2017-09-09T16:54:24.779Z,85.10
2017-09-09T16:56:53.097Z,83.30
2017-09-09T16:59:20.626Z,83.30
2017-09-09T17:01:48.212Z,83.10
2017-09-09T17:04:15.743Z,84.40
2017-09-09T17:06:44.052Z,87.00
2017-09-09T17:09:11.558Z,87.00
2017-09-09T17:11:39.125Z,89.10
2017-09-09T17:14:06.634Z,85.70
2017-09-09T17:16:34.171Z,88.60
2017-09-09T17:19:01.696Z,87.20
2017-09-09T17:21:30.020Z,88.50
2017-09-09T17:23:57.592Z,88.40
2017-09-09T17:26:25.131Z,90.70
2017-09-09T17:28:52.662Z,91.20
2017-09-09T17:31:20.210Z,90.40
2017-09-09T17:33:47.710Z,90.00
2017-09-09T17:36:15.278Z,89.70
2017-09-09T17:38:42.797Z,90.60
2017-09-09T17:41:10.319Z,90.70
2017-09-09T17:43:37.832Z,90.70
2017-09-09T17:46:05.357Z,91.70
2017-09-09T17:48:32.862Z,91.90
2017-09-09T17:51:00.411Z,92.50
2017-09-09T17:53:27.970Z,92.50
2017-09-09T17:55:56.451Z,92.40
2017-09-09T17:58:24.731Z,91.50
2017-09-09T18:00:52.254Z,91.50
2017-09-09T18:03:19.789Z,91.80
2017-09-09T18:05:47.338Z,91.90
2017-09-09T18:08:14.838Z,91.70
2017-09-09T18:10:42.363Z,91.60
2017-09-09T18:13:09.867Z,92.60
2017-09-09T18:15:37.391Z,92.50
2017-09-09T18:18:04.937Z,93.00
2017-09-09T18:20:32.443Z,92.90
2017-09-09T18:23:00.006Z,93.00
2017-09-09T18:25:27.529Z,92.90
2017-09-09T18:27:55.066Z,92.90
2017-09-09T18:30:22.586Z,92.90
2017-09-09T18:32:50.112Z,92.90
2017-09-09T18:35:17.631Z,93.00
2017-09-09T18:37:45.934Z,92.90
2017-09-09T18:40:13.448Z,92.90
2017-09-09T18:42:41.014Z,93.10
2017-09-09T18:45:09.290Z,92.60
2017-09-09T18:47:37.616Z,92.80
2017-09-09T18:50:05.168Z,92.80
2017-09-09T18:52:32.728Z,92.80
2017-09-09T18:55:00.251Z,92.80
2017-09-09T18:57:28.530Z,92.80
2017-09-09T18:59:56.601Z,92.70
2017-09-09T19:02:24.885Z,94.50
2017-09-09T19:04:52.395Z,94.50
2017-09-09T19:07:19.950Z,94.90
2017-09-09T19:09:47.499Z,94.70
2017-09-09T19:12:15.089Z,94.40
2017-09-09T19:14:42.590Z,95.20
2017-09-09T19:17:10.122Z,94.60
2017-09-09T19:19:37.620Z,94.40
2017-09-09T19:22:05.157Z,94.40
2017-09-09T19:24:33.486Z,94.20
2017-09-09T19:27:01.014Z,94.20
2017-09-09T19:29:28.569Z,94.00
2017-09-09T19:31:56.696Z,94.20
2017-09-09T19:34:24.970Z,94.50
2017-09-09T19:36:52.603Z,94.50
2017-09-09T19:39:20.130Z,93.90
2017-09-09T19:41:48.426Z,93.50
2017-09-09T19:44:15.925Z,93.50
2017-09-09T19:46:43.453Z,93.70
2017-09-09T19:49:10.978Z,93.40
2017-09-09T19:51:39.289Z,93.00
2017-09-09T19:54:06.797Z,93.00
2017-09-09T19:56:34.311Z,93.20
2017-09-09T19:59:01.850Z,92.90
2017-09-09T20:01:29.375Z,93.00
2017-09-09T20:03:56.902Z,93.00
2017-09-09T20:06:24.425Z,93.80
2017-09-09T20:08:52.738Z,93.60
2017-09-09T20:11:20.267Z,93.50
2017-09-09T20:13:47.788Z,93.50
2017-09-09T20:16:15.315Z,93.20
2017-09-09T20:18:42.850Z,92.90
2017-09-09T20:21:10.375Z,92.90
2017-09-09T20:23:37.891Z,93.10
2017-09-09T20:26:05.460Z,92.50
2017-09-09T20:28:32.987Z,92.90
2017-09-09T20:31:00.518Z,93.30
2017-09-09T20:33:28.839Z,93.20
2017-09-09T20:35:57.587Z,93.50
2017-09-09T20:38:25.871Z,92.40
2017-09-09T20:40:53.394Z,92.40
2017-09-09T20:43:20.926Z,92.80
2017-09-09T20:45:48.450Z,93.80
2017-09-09T20:48:16.756Z,92.90
2017-09-09T20:50:44.287Z,92.80
2017-09-09T20:53:12.602Z,93.10
2017-09-09T20:55:40.126Z,93.00
2017-09-09T20:58:07.655Z,92.50
2017-09-09T21:00:35.182Z,92.60
2017-09-09T21:03:02.712Z,92.60
2017-09-09T21:05:30.227Z,92.20
2017-09-09T21:07:57.772Z,91.90
2017-09-09T21:10:25.305Z,92.30
2017-09-09T21:12:52.858Z,92.60
2017-09-09T21:15:20.374Z,93.30
2017-09-09T21:17:47.906Z,93.10
2017-09-09T21:20:15.449Z,93.10
2017-09-09T21:22:42.987Z,92.40
2017-09-09T21:25:10.494Z,93.00
2017-09-09T21:27:38.062Z,93.20
2017-09-09T21:30:06.366Z,93.50
2017-09-09T21:32:34.668Z,93.80
2017-09-09T21:35:02.181Z,93.80
2017-09-09T21:37:30.488Z,93.40
2017-09-09T21:39:58.802Z,93.90
2017-09-09T21:42:26.318Z,93.50
2017-09-09T21:44:54.607Z,92.80
2017-09-09T21:47:22.874Z,93.40
2017-09-09T21:49:51.159Z,93.50
2017-09-09T21:52:19.439Z,93.90
2017-09-09T21:54:47.741Z,94.10
2017-09-09T21:57:15.246Z,94.10
2017-09-09T21:59:42.834Z,94.20
2017-09-09T22:02:11.117Z,94.90
2017-09-09T22:04:39.433Z,94.50
2017-09-09T22:07:06.962Z,94.40
2017-09-09T22:09:35.281Z,94.30
2017-09-09T22:12:02.797Z,94.30
2017-09-09T22:14:30.450Z,94.50
2017-09-09T22:16:57.970Z,93.90
2017-09-09T22:19:25.621Z,93.40
2017-09-09T22:21:53.145Z,93.50
2017-09-09T22:24:20.658Z,93.50
2017-09-09T22:26:48.154Z,93.80
2017-09-09T22:29:15.713Z,93.80
2017-09-09T22:31:43.223Z,93.80
2017-09-09T22:34:10.773Z,94.20
2017-09-09T22:36:38.339Z,94.10
2017-09-09T22:39:05.895Z,94.30
2017-09-09T22:41:33.407Z,94.60
2017-09-09T22:44:01.129Z,94.00
2017-09-09T22:46:28.651Z,94.00
2017-09-09T22:48:57.097Z,94.10
2017-09-09T22:51:25.371Z,94.40
2017-09-09T22:53:53.696Z,94.70
2017-09-09T22:56:21.194Z,94.60
2017-09-09T22:58:48.762Z,94.40
2017-09-09T23:01:16.286Z,94.40
2017-09-09T23:03:43.842Z,94.10
2017-09-09T23:06:11.379Z,94.00
2017-09-09T23:08:38.938Z,94.30
2017-09-09T23:11:06.469Z,94.40
2017-09-09T23:13:34.794Z,94.40
2017-09-09T23:16:02.298Z,94.30
2017-09-09T23:18:29.859Z,94.50
2017-09-09T23:20:57.388Z,94.70
2017-09-09T23:23:24.914Z,94.90
2017-09-09T23:25:52.446Z,94.90
2017-09-09T23:28:20.736Z,94.90
2017-09-09T23:30:49.054Z,95.10
2017-09-09T23:33:16.570Z,95.00
2017-09-09T23:35:44.887Z,95.40
2017-09-09T23:38:12.435Z,95.30
2017-09-09T23:40:39.962Z,95.20
2017-09-09T23:43:08.235Z,95.30
2017-09-09T23:45:35.763Z,95.30
2017-09-09T23:48:03.265Z,95.20
2017-09-09T23:50:31.593Z,94.80
2017-09-09T23:52:59.103Z,94.80
2017-09-09T23:55:27.414Z,94.50
2017-09-09T23:57:54.953Z,94.50
